Time;durP1;ratioP1;P1;durP2;ratioP2;P2;SDS_P1;SDS_P2;PMS_P1;PMS_P2;Temp;Humidity;BMP_temperature;BMP_pressure;BME280_temperature;BME280_humidity;BME280_pressure;Samples;Min_cycle;Max_cycle;Signal;HPM_P1;HPM_P2
2021/07/30 00:02:19;;;;;;;11.13;6.75;;;;;;;27.16;47.88;99985.28;4991513;28;20027;-68
2021/07/30 00:04:44;;;;;;;19.27;6.72;;;;;;;26.90;48.84;100003.06;4991377;28;20029;-67
2021/07/30 00:07:10;;;;;;;20.13;6.97;;;;;;;26.64;50.44;100017.25;4991413;28;20515;-68
2021/07/30 00:09:35;;;;;;;21.10;8.90;;;;;;;26.46;51.73;99989.69;4991684;28;20027;-68
2021/07/30 00:12:01;;;;;;;18.95;8.13;;;;;;;26.38;52.08;99994.38;4991495;28;20034;-65
2021/07/30 00:14:26;;;;;;;14.98;9.50;;;;;;;25.79;52.83;99940.88;4991790;28;20102;-68
2021/07/30 00:16:52;;;;;;;18.95;9.10;;;;;;;26.22;52.25;100002.00;4991447;28;20030;-68
2021/07/30 00:19:17;;;;;;;17.48;10.00;;;;;;;26.37;51.92;100005.88;4991598;28;20022;-68
2021/07/30 00:21:43;;;;;;;20.17;9.90;;;;;;;26.16;53.08;100000.47;4991645;28;20030;-67
2021/07/30 00:24:08;;;;;;;19.60;10.30;;;;;;;25.92;53.83;100007.41;4991693;28;20034;-65
2021/07/30 00:26:34;;;;;;;18.77;9.88;;;;;;;25.98;52.97;99989.56;4957126;28;20042;-67
2021/07/30 00:28:59;;;;;;;17.40;9.57;;;;;;;26.26;52.08;99993.91;4991615;28;20035;-64
2021/07/30 00:31:25;;;;;;;21.80;9.90;;;;;;;26.44;51.79;99987.09;4991707;28;20026;-67
2021/07/30 00:33:50;;;;;;;19.75;9.88;;;;;;;26.63;51.17;99986.41;4991304;28;20113;-68
2021/07/30 00:36:16;;;;;;;18.13;9.88;;;;;;;26.04;52.64;99953.25;4991291;28;20037;-68
2021/07/30 00:38:41;;;;;;;18.58;8.93;;;;;;;26.07;53.24;99992.84;4973202;28;20045;-67
2021/07/30 00:41:10;;;;;;;16.90;8.77;;;;;;;25.94;53.33;99987.09;4974235;28;20061;-67
2021/07/30 00:43:35;;;;;;;19.00;9.53;;;;;;;26.07;53.12;99991.06;4991516;28;20040;-67
2021/07/30 00:46:01;;;;;;;12.82;8.80;;;;;;;25.93;53.29;99988.88;4991662;28;20034;-69
2021/07/30 00:48:29;;;;;;;15.50;8.93;;;;;;;26.09;52.84;99986.56;4992207;28;20034;-65
2021/07/30 00:50:56;;;;;;;16.42;8.60;;;;;;;25.88;53.78;99993.44;4995117;28;20041;-68
2021/07/30 00:53:23;;;;;;;18.30;9.73;;;;;;;25.86;53.40;99986.47;4995450;28;20113;-67
2021/07/30 00:55:49;;;;;;;19.90;8.43;;;;;;;25.84;53.45;99983.88;4995043;28;20125;-71
2021/07/30 00:58:15;;;;;;;16.77;8.90;;;;;;;25.49;54.07;99967.44;4994680;28;20580;-66
2021/07/30 01:00:41;;;;;;;20.13;8.40;;;;;;;25.55;54.55;99992.81;4994860;28;20123;-69
2021/07/30 01:03:08;;;;;;;17.98;9.07;;;;;;;25.60;53.83;99985.59;4994573;28;20026;-67
2021/07/30 01:05:35;;;;;;;14.05;8.95;;;;;;;25.44;55.26;99986.06;4995022;28;20077;-66
2021/07/30 01:08:01;;;;;;;20.88;8.90;;;;;;;25.58;54.50;99982.13;4995028;28;20022;-63
2021/07/30 01:10:27;;;;;;;15.57;9.35;;;;;;;25.42;53.89;99950.94;4977294;28;20396;-66
2021/07/30 01:12:54;;;;;;;17.90;8.60;;;;;;;25.71;53.70;99987.84;4994837;28;20026;-67
2021/07/30 01:15:19;;;;;;;17.10;8.50;;;;;;;25.77;53.01;99955.91;4994810;28;20030;-67
2021/07/30 01:17:45;;;;;;;19.95;8.93;;;;;;;26.10;52.52;99974.22;4994565;28;20050;-67
2021/07/30 01:20:12;;;;;;;16.98;9.30;;;;;;;26.30;52.49;99977.00;4994638;28;20116;-67
2021/07/30 01:22:51;;;;;;;16.58;8.98;;;;;;;26.24;51.81;99987.81;4994668;28;20030;-68
2021/07/30 01:25:16;;;;;;;22.40;9.15;;;;;;;26.04;52.90;99984.97;4994636;28;20030;-67
2021/07/30 01:27:42;;;;;;;26.58;9.57;;;;;;;26.02;53.25;99992.09;4994657;28;20049;-67
2021/07/30 01:30:08;;;;;;;24.95;8.60;;;;;;;25.65;54.17;99988.94;4975917;28;20069;-67
2021/07/30 01:32:33;;;;;;;21.80;9.30;;;;;;;25.62;54.26;99995.19;4994586;28;20030;-67
2021/07/30 01:35:02;;;;;;;15.77;8.48;;;;;;;25.27;55.55;99991.88;4994392;28;20042;-68
2021/07/30 01:37:28;;;;;;;18.90;8.53;;;;;;;24.95;56.73;99999.03;4994166;28;20026;-68
2021/07/30 01:39:53;;;;;;;14.05;8.52;;;;;;;24.49;57.17;99960.75;4993989;28;20280;-67
2021/07/30 01:42:19;;;;;;;13.70;8.90;;;;;;;24.99;56.58;99983.94;4994315;28;20038;-67
2021/07/30 01:44:44;;;;;;;16.08;8.65;;;;;;;24.96;56.84;99987.56;4994148;28;20498;-67
2021/07/30 01:47:10;;;;;;;19.67;8.30;;;;;;;24.86;56.65;99971.13;4994018;28;20037;-67
2021/07/30 01:49:35;;;;;;;18.35;8.68;;;;;;;24.99;55.98;99957.53;4993873;28;20022;-67
2021/07/30 01:52:01;;;;;;;16.60;8.60;;;;;;;25.03;55.70;99983.81;4994403;28;20034;-67
2021/07/30 01:54:28;;;;;;;15.25;8.20;;;;;;;25.11;55.89;99973.00;4994021;28;20042;-68
2021/07/30 01:56:53;;;;;;;16.38;8.50;;;;;;;25.15;55.09;99952.66;4993833;28;20481;-68
2021/07/30 01:59:19;;;;;;;22.27;9.48;;;;;;;25.57;54.27;99983.91;4993683;28;20054;-68
2021/07/30 02:01:44;;;;;;;17.25;8.20;;;;;;;25.72;53.33;99979.91;4994190;28;20525;-69
2021/07/30 02:04:09;;;;;;;20.88;9.07;;;;;;;25.93;53.11;99982.69;4993796;28;20030;-67
2021/07/30 02:06:35;;;;;;;18.65;9.35;;;;;;;26.07;53.06;99984.91;4993987;28;20056;-67
2021/07/30 02:09:01;;;;;;;14.10;8.77;;;;;;;26.10;52.92;99984.81;4993473;28;20495;-67
2021/07/30 02:11:26;;;;;;;19.92;8.90;;;;;;;26.12;52.77;99981.19;4993475;28;20042;-68
2021/07/30 02:16:36;;;;;;;16.55;8.88;;;;;;;26.18;52.53;99977.44;4993898;28;20042;-66
2021/07/30 02:19:02;;;;;;;14.70;8.13;;;;;;;25.94;53.19;99987.94;4993378;28;20022;-68
2021/07/30 02:21:27;;;;;;;17.50;8.25;;;;;;;25.66;53.90;99980.94;4992872;28;20030;-70
2021/07/30 02:23:53;;;;;;;18.27;8.40;;;;;;;25.54;53.87;99981.34;4993402;28;20022;-69
2021/07/30 02:26:18;;;;;;;15.40;8.23;;;;;;;25.58;54.09;99979.47;4993149;28;20378;-68
2021/07/30 02:28:44;;;;;;;15.73;8.20;;;;;;;25.58;53.99;99982.97;4993338;28;20061;-67
2021/07/30 02:31:09;;;;;;;14.25;8.02;;;;;;;25.62;53.86;99987.28;4993247;28;20022;-69
2021/07/30 02:33:34;;;;;;;15.30;8.30;;;;;;;25.51;53.74;99955.03;4993468;28;20037;-68
2021/07/30 02:36:00;;;;;;;14.82;8.50;;;;;;;25.47;54.19;99980.72;4993183;28;20456;-68
2021/07/30 02:38:25;;;;;;;14.85;7.68;;;;;;;25.34;54.41;99960.84;4993270;28;20038;-66
2021/07/30 02:40:51;;;;;;;14.02;7.45;;;;;;;25.21;54.83;99978.88;4993086;28;20032;-68
2021/07/30 02:43:16;;;;;;;13.70;7.72;;;;;;;24.78;56.53;99990.75;4992683;28;20032;-67
2021/07/30 02:45:42;;;;;;;15.95;7.90;;;;;;;24.46;57.29;100000.41;4991582;28;20065;-71
2021/07/30 02:48:07;;;;;;;14.25;6.90;;;;;;;24.02;58.75;99988.38;4992992;28;20495;-67
2021/07/30 02:50:32;;;;;;;13.13;7.88;;;;;;;24.26;57.70;99991.28;4992806;28;20033;-68
2021/07/30 02:52:58;;;;;;;15.63;7.30;;;;;;;24.33;57.44;99990.19;4992477;28;20037;-69
2021/07/30 02:55:23;;;;;;;14.02;7.43;;;;;;;24.32;57.31;100001.66;4992874;28;20041;-68
2021/07/30 02:57:49;;;;;;;14.82;6.80;;;;;;;24.47;57.10;99981.03;4992388;28;20049;-68
2021/07/30 03:00:15;;;;;;;24.70;7.78;;;;;;;24.62;56.81;99959.47;4971719;28;20538;-69
2021/07/30 03:02:40;;;;;;;23.13;6.95;;;;;;;24.65;56.71;99987.56;4989320;28;20025;-69
2021/07/30 03:05:06;;;;;;;29.23;8.55;;;;;;;24.21;57.73;99987.91;4990313;28;20030;-68
2021/07/30 03:07:31;;;;;;;21.02;7.85;;;;;;;24.08;58.07;99989.16;4991651;28;20026;-65
2021/07/30 03:09:57;;;;;;;12.68;7.25;;;;;;;24.13;57.44;99976.72;4991641;28;20081;-65
2021/07/30 03:12:23;;;;;;;14.45;6.93;;;;;;;24.24;57.67;99990.47;4990408;28;20026;-67
2021/07/30 03:14:48;;;;;;;16.05;7.45;;;;;;;24.41;56.36;99954.81;4991587;28;20030;-69
2021/07/30 03:17:14;;;;;;;17.67;7.55;;;;;;;24.77;55.96;99983.72;4990672;28;20492;-68
2021/07/30 03:19:39;;;;;;;15.23;7.95;;;;;;;24.97;55.15;99988.41;4991487;28;20054;-69
2021/07/30 03:22:05;;;;;;;18.88;7.85;;;;;;;24.93;55.68;100006.13;4991361;28;20109;-67
2021/07/30 03:24:30;;;;;;;18.48;8.15;;;;;;;24.90;55.45;100000.94;4973805;28;20065;-66
2021/07/30 03:26:56;;;;;;;19.25;7.68;;;;;;;24.93;55.36;100008.75;4990986;28;20083;-68
2021/07/30 03:29:21;;;;;;;23.55;8.55;;;;;;;24.98;55.80;100004.19;4991441;28;20033;-68
2021/07/30 03:31:48;;;;;;;16.17;7.80;;;;;;;24.68;56.45;100004.19;4991230;28;20030;-68
2021/07/30 03:34:14;;;;;;;21.25;7.95;;;;;;;24.66;56.43;99997.22;4990868;28;20026;-68
2021/07/30 03:36:40;;;;;;;17.27;7.63;;;;;;;24.62;56.08;99974.47;4991326;28;20018;-68
2021/07/30 03:39:06;;;;;;;26.27;8.38;;;;;;;24.82;55.45;99968.63;4991353;28;20072;-68
2021/07/30 03:41:31;;;;;;;22.10;8.52;;;;;;;25.10;55.98;99995.03;4990880;28;20104;-69
2021/07/30 03:43:57;;;;;;;24.67;9.75;;;;;;;25.19;54.74;100004.47;4991068;28;20473;-69
2021/07/30 03:46:22;;;;;;;26.48;10.15;;;;;;;25.34;54.25;100006.59;4991089;28;20022;-68
2021/07/30 03:48:48;;;;;;;28.73;9.63;;;;;;;25.17;55.17;99971.94;4990602;28;20393;-67
2021/07/30 03:51:13;;;;;;;23.15;9.38;;;;;;;25.33;54.21;100006.66;4994548;28;20033;-67
2021/07/30 03:53:39;;;;;;;23.88;9.93;;;;;;;25.35;54.34;100002.22;4991353;28;20037;-67
2021/07/30 03:56:15;;;;;;;26.00;10.07;;;;;;;25.35;54.24;100000.41;4990594;28;20026;-67
2021/07/30 03:58:42;;;;;;;27.58;9.48;;;;;;;25.45;54.03;100000.16;4972995;28;20075;-66
2021/07/30 04:01:08;;;;;;;31.88;10.38;;;;;;;25.37;55.07;100010.97;4991107;28;20058;-67
2021/07/30 04:03:34;;;;;;;20.27;10.32;;;;;;;25.37;54.73;99995.09;4990763;28;20029;-67
2021/07/30 04:06:04;;;;;;;19.95;9.88;;;;;;;25.35;54.62;99995.13;4987244;28;20034;-68
2021/07/30 04:08:31;;;;;;;25.25;10.80;;;;;;;25.42;54.16;99992.31;4991093;28;20030;-64
2021/07/30 04:10:58;;;;;;;28.30;11.18;;;;;;;25.05;56.35;99996.97;4991535;28;20739;-66
2021/07/30 04:13:24;;;;;;;20.05;9.98;;;;;;;24.89;56.53;100011.56;4991838;28;20030;-68
2021/07/30 04:15:49;;;;;;;20.73;9.77;;;;;;;24.60;56.04;99978.91;4986945;28;20030;-68
2021/07/30 04:18:14;;;;;;;24.88;10.68;;;;;;;24.83;55.87;99989.69;4990416;28;20015;-66
2021/07/30 04:20:40;;;;;;;23.35;9.40;;;;;;;24.91;55.62;99981.56;4983203;28;20022;-65
2021/07/30 04:23:06;;;;;;;21.13;9.50;;;;;;;24.82;55.64;99958.94;4984954;28;20018;-67
2021/07/30 04:25:31;;;;;;;19.90;10.13;;;;;;;25.11;55.15;99988.84;4993197;28;20428;-69
2021/07/30 04:27:57;;;;;;;21.15;10.63;;;;;;;25.19;55.39;99997.38;4985822;28;20133;-70
2021/07/30 04:30:23;;;;;;;19.58;9.85;;;;;;;25.04;55.77;100003.16;4950393;28;20125;-70
2021/07/30 04:32:51;;;;;;;21.98;10.90;;;;;;;24.78;56.05;100007.44;4986571;28;20026;-65
2021/07/30 04:35:17;;;;;;;17.38;9.60;;;;;;;24.60;56.75;100011.47;4985255;28;20082;-69
2021/07/30 04:37:43;;;;;;;24.27;10.45;;;;;;;24.63;56.94;100008.72;4994031;28;20034;-68
2021/07/30 04:40:09;;;;;;;28.35;10.75;;;;;;;24.56;57.94;100017.72;4994049;28;20019;-66
2021/07/30 04:42:34;;;;;;;28.25;11.32;;;;;;;24.41;59.74;100016.38;4944191;28;20046;-71
2021/07/30 04:44:59;;;;;;;20.58;9.95;;;;;;;24.47;57.98;100020.63;4994691;28;20574;-65
2021/07/30 04:47:25;;;;;;;28.48;10.63;;;;;;;24.64;58.30;100018.38;4991853;28;20481;-68
2021/07/30 04:49:51;;;;;;;21.33;9.48;;;;;;;24.68;57.60;100012.13;4992768;28;20034;-68
2021/07/30 04:52:16;;;;;;;24.90;10.32;;;;;;;24.78;57.21;100028.56;4990808;28;20065;-68
2021/07/30 04:54:41;;;;;;;17.98;9.65;;;;;;;24.76;57.76;100025.13;4985629;28;20501;-68
2021/07/30 04:57:08;;;;;;;18.60;10.13;;;;;;;24.76;57.21;99997.84;4991539;28;20040;-68
2021/07/30 04:59:33;;;;;;;18.10;8.77;;;;;;;25.04;55.12;100027.78;4985451;28;20187;-67
2021/07/30 05:01:59;;;;;;;25.77;9.77;;;;;;;25.22;55.00;100033.41;4994224;28;20030;-65
2021/07/30 05:04:24;;;;;;;20.77;9.25;;;;;;;25.40;54.40;100033.81;4993047;28;20044;-66
2021/07/30 05:06:50;;;;;;;24.70;9.30;;;;;;;25.58;53.71;100038.47;4993934;28;20392;-68
2021/07/30 05:09:36;;;;;;;17.40;9.20;;;;;;;25.77;52.71;100036.13;4993773;28;20528;-69
2021/07/30 05:12:01;;;;;;;19.58;9.02;;;;;;;25.71;52.42;100036.31;4952897;29;20035;-66
2021/07/30 05:14:26;;;;;;;14.68;8.30;;;;;;;25.68;51.66;100036.41;4952841;29;20027;-67
2021/07/30 05:16:52;;;;;;;14.63;7.97;;;;;;;25.63;51.91;100044.50;4952828;29;20043;-69
2021/07/30 05:19:17;;;;;;;19.80;8.48;;;;;;;25.71;51.42;100057.47;4952501;29;20037;-68
2021/07/30 05:21:43;;;;;;;19.45;8.23;;;;;;;25.71;51.54;100031.03;4952435;29;20438;-67
2021/07/30 05:24:08;;;;;;;19.52;8.98;;;;;;;25.65;52.51;100045.31;4952688;29;20482;-67
2021/07/30 05:26:33;;;;;;;22.30;8.77;;;;;;;25.58;53.07;100046.41;4952537;29;20418;-67
2021/07/30 05:28:59;;;;;;;18.85;8.38;;;;;;;25.64;52.25;100045.38;4952642;29;20496;-67
2021/07/30 05:31:24;;;;;;;16.67;7.95;;;;;;;25.78;52.08;100043.16;4952325;29;20764;-65
2021/07/30 05:33:50;;;;;;;15.52;8.35;;;;;;;25.87;51.83;100034.03;4952146;28;20039;-67
2021/07/30 05:36:18;;;;;;;15.95;8.02;;;;;;;25.95;51.81;100042.56;4965762;28;20030;-67
2021/07/30 05:38:44;;;;;;;15.77;8.10;;;;;;;25.98;53.56;100037.19;4952777;29;20043;-68
2021/07/30 05:41:14;;;;;;;16.00;8.40;;;;;;;26.08;52.89;100037.78;4936297;29;20038;-67
2021/07/30 05:43:40;;;;;;;17.27;7.65;;;;;;;26.36;51.51;100038.59;4982989;28;20526;-66
2021/07/30 05:46:07;;;;;;;13.77;8.02;;;;;;;26.35;51.21;100043.00;4982302;28;20489;-68
2021/07/30 05:48:32;;;;;;;13.60;8.48;;;;;;;26.50;50.66;100046.88;4974823;28;20038;-67
2021/07/30 05:50:58;;;;;;;21.33;8.20;;;;;;;26.61;49.96;100041.22;4992987;28;20038;-66
2021/07/30 05:53:23;;;;;;;15.50;8.18;;;;;;;26.79;49.89;100042.31;4993744;28;20039;-68
2021/07/30 05:55:49;;;;;;;15.93;8.27;;;;;;;26.96;49.61;100036.41;4994011;28;20031;-65
2021/07/30 05:58:15;;;;;;;18.92;8.88;;;;;;;26.91;49.69;100036.56;4994119;28;20493;-67
2021/07/30 06:00:40;;;;;;;19.45;9.50;;;;;;;26.71;52.39;100036.44;4993259;28;20165;-66
2021/07/30 06:03:06;;;;;;;18.80;9.13;;;;;;;26.70;50.61;100038.22;4983018;28;20033;-68
2021/07/30 06:05:31;;;;;;;23.23;9.18;;;;;;;26.77;51.01;100033.59;4991533;28;20034;-66
2021/07/30 06:07:57;;;;;;;16.60;9.00;;;;;;;26.68;50.50;100041.84;5003467;28;20436;-71
2021/07/30 06:10:24;;;;;;;18.48;8.85;;;;;;;26.60;50.01;100040.31;5001705;28;20037;-69
2021/07/30 06:12:49;;;;;;;20.25;8.32;;;;;;;26.68;49.05;100015.34;4986700;28;20037;-67
2021/07/30 06:15:15;;;;;;;11.38;7.30;;;;;;;26.71;52.00;100042.59;4987237;28;20101;-65
2021/07/30 06:17:40;;;;;;;11.27;7.93;;;;;;;26.77;49.53;100007.13;4987542;28;20022;-65
2021/07/30 06:20:08;;;;;;;19.00;7.90;;;;;;;27.13;48.70;100041.06;4983884;28;20517;-67
2021/07/30 06:22:36;;;;;;;14.52;7.95;;;;;;;27.31;48.59;100033.31;5004630;28;20054;-64
2021/07/30 06:25:02;;;;;;;16.98;7.95;;;;;;;27.49;50.04;100034.38;4984078;28;20027;-66
2021/07/30 06:27:28;;;;;;;14.23;7.75;;;;;;;27.64;48.03;100030.25;4984216;28;20022;-68
2021/07/30 06:29:53;;;;;;;14.00;8.07;;;;;;;27.63;46.96;100005.53;4980148;28;20038;-66
2021/07/30 06:32:19;;;;;;;19.67;6.45;;;;;;;27.87;45.00;100022.19;4984145;28;20515;-68
2021/07/30 06:34:44;;;;;;;13.88;7.30;;;;;;;28.00;45.14;100024.31;4949317;28;20470;-67
2021/07/30 06:37:10;;;;;;;15.45;7.80;;;;;;;28.09;45.77;100027.47;4982665;28;20493;-67
2021/07/30 06:39:35;;;;;;;13.23;7.75;;;;;;;27.83;45.26;99972.00;4984108;28;20026;-66
2021/07/30 06:42:00;;;;;;;11.70;7.35;;;;;;;28.12;46.48;100023.81;4988857;28;20042;-66
2021/07/30 06:44:26;;;;;;;14.93;7.57;;;;;;;28.16;47.25;100016.59;4984681;28;20023;-66
2021/07/30 06:46:51;;;;;;;16.73;7.25;;;;;;;28.14;45.95;100006.06;4989986;28;20018;-66
2021/07/30 06:49:17;;;;;;;19.92;6.90;;;;;;;28.28;45.28;100029.34;4992947;28;20030;-66
2021/07/30 06:51:42;;;;;;;11.70;6.75;;;;;;;28.34;45.17;100026.41;4991904;28;20033;-72
2021/07/30 06:54:08;;;;;;;21.45;7.25;;;;;;;28.43;45.57;100027.78;4993348;28;20030;-65
2021/07/30 06:56:34;;;;;;;16.85;7.57;;;;;;;28.50;45.03;100025.72;4992709;28;20030;-66
2021/07/30 06:58:59;;;;;;;15.25;7.68;;;;;;;28.64;45.41;100022.47;4992556;28;20055;-67
2021/07/30 07:01:25;;;;;;;18.30;8.23;;;;;;;28.54;46.41;100025.53;4992936;28;20045;-69
2021/07/30 07:03:50;;;;;;;16.35;7.60;;;;;;;28.49;46.28;100021.38;4993135;28;20029;-66
2021/07/30 07:06:16;;;;;;;17.23;7.93;;;;;;;28.41;46.72;100011.06;4992837;28;20045;-66
2021/07/30 07:08:43;;;;;;;12.82;7.57;;;;;;;28.52;45.97;100031.84;4993099;28;20041;-69
2021/07/30 07:11:11;;;;;;;14.73;7.03;;;;;;;28.73;45.67;100017.59;4992501;28;20030;-65
2021/07/30 07:13:42;;;;;;;11.82;7.30;;;;;;;28.94;45.02;100016.69;4987347;28;20030;-65
2021/07/30 07:16:08;;;;;;;11.02;7.28;;;;;;;28.99;45.05;99996.09;4992317;28;20034;-66
2021/07/30 07:18:33;;;;;;;19.80;7.25;;;;;;;29.33;45.12;100015.75;4992422;28;20033;-66
2021/07/30 07:20:59;;;;;;;14.52;7.68;;;;;;;29.28;46.12;100017.75;4992687;28;20018;-65
2021/07/30 07:23:25;;;;;;;15.27;7.60;;;;;;;29.30;45.14;100026.53;4992269;28;20440;-69
2021/07/30 07:25:51;;;;;;;18.25;7.90;;;;;;;29.32;45.15;100024.66;4987971;28;20056;-65
2021/07/30 07:28:16;;;;;;;16.27;7.68;;;;;;;29.38;45.21;100024.34;4988224;28;20477;-68
2021/07/30 07:30:42;;;;;;;11.68;7.47;;;;;;;29.37;46.73;99998.69;4982305;28;20405;-68
2021/07/30 07:33:07;;;;;;;17.17;7.47;;;;;;;29.29;47.19;100003.53;4991066;28;20057;-66
2021/07/30 07:35:33;;;;;;;13.65;7.45;;;;;;;29.44;45.52;100017.88;4981187;28;20094;-67
2021/07/30 07:38:03;;;;;;;16.38;8.13;;;;;;;29.61;45.00;100020.56;4985866;28;20109;-70
2021/07/30 07:40:28;;;;;;;16.42;7.10;;;;;;;29.67;44.65;100016.72;4989274;28;20034;-65
2021/07/30 07:42:54;;;;;;;14.38;7.70;;;;;;;29.84;47.83;100024.72;4988114;28;20416;-67
2021/07/30 07:45:19;;;;;;;15.10;7.13;;;;;;;29.60;45.78;99994.06;4981282;28;20023;-66
2021/07/30 07:47:45;;;;;;;14.73;7.75;;;;;;;29.76;48.46;100013.63;4982177;28;20374;-68
2021/07/30 07:50:16;;;;;;;16.73;7.80;;;;;;;29.89;45.00;100013.00;4971745;28;20053;-66
2021/07/30 07:52:41;;;;;;;13.90;7.97;;;;;;;29.97;44.69;100016.16;4984314;28;20034;-71
2021/07/30 07:55:09;;;;;;;15.38;8.32;;;;;;;30.14;46.45;100017.94;4981927;28;20026;-67
2021/07/30 07:57:35;;;;;;;14.35;8.18;;;;;;;30.38;44.42;100007.81;4982789;28;20030;-66
2021/07/30 08:00:00;;;;;;;14.15;7.68;;;;;;;30.59;46.42;100010.28;4981707;28;20476;-71
2021/07/30 08:02:26;;;;;;;13.90;7.28;;;;;;;30.84;42.67;100008.97;4982676;28;20034;-68
2021/07/30 08:04:51;;;;;;;24.42;7.85;;;;;;;30.96;44.16;100005.63;4982480;28;20023;-67
2021/07/30 08:07:17;;;;;;;13.45;7.70;;;;;;;30.96;45.67;100009.13;4980603;28;20034;-70
2021/07/30 08:09:46;;;;;;;15.50;7.70;;;;;;;30.97;44.87;100010.84;4983403;28;20022;-69
2021/07/30 08:12:12;;;;;;;14.77;7.97;;;;;;;30.98;45.85;100014.41;4991488;28;20034;-71
2021/07/30 08:14:38;;;;;;;16.92;8.20;;;;;;;30.93;45.84;100013.75;4989829;28;20054;-67
2021/07/30 08:17:04;;;;;;;17.42;8.15;;;;;;;30.86;46.69;100010.59;4983110;28;20062;-67
2021/07/30 08:19:33;;;;;;;12.32;7.03;;;;;;;30.99;45.10;100008.09;4980822;28;20122;-67
2021/07/30 08:22:00;;;;;;;15.77;7.88;;;;;;;31.10;43.63;100004.88;4992051;28;20103;-66
2021/07/30 08:24:26;;;;;;;12.75;7.07;;;;;;;31.29;42.39;99996.66;4991557;28;20022;-71
2021/07/30 08:26:51;;;;;;;15.23;7.13;;;;;;;31.42;43.63;99995.03;4991664;28;20030;-71
2021/07/30 08:29:16;;;;;;;19.98;8.43;;;;;;;31.53;43.54;99996.19;4991916;28;20026;-65
2021/07/30 08:31:42;;;;;;;16.20;7.60;;;;;;;31.48;42.80;99995.59;4991702;28;20432;-69
2021/07/30 08:34:07;;;;;;;16.98;7.80;;;;;;;31.30;44.40;99998.41;4991882;28;20402;-71
2021/07/30 08:36:33;;;;;;;12.88;7.50;;;;;;;31.16;43.11;99956.53;4991736;28;20034;-69
2021/07/30 08:38:58;;;;;;;15.15;8.10;;;;;;;31.49;45.28;99984.00;4991527;28;20023;-70
2021/07/30 08:41:24;;;;;;;14.40;7.30;;;;;;;31.36;43.55;99960.69;4991613;28;20038;-65
2021/07/30 08:43:51;;;;;;;16.92;7.50;;;;;;;31.62;43.90;99982.34;4990457;28;20040;-68
2021/07/30 08:46:17;;;;;;;15.70;7.72;;;;;;;31.76;44.39;99978.88;4991503;28;20045;-68
2021/07/30 08:48:42;;;;;;;16.45;7.65;;;;;;;31.79;41.96;99968.03;4986493;28;20019;-69
2021/07/30 08:51:14;;;;;;;14.48;7.28;;;;;;;31.91;41.58;99975.28;4986438;28;20469;-68
2021/07/30 08:53:40;;;;;;;13.02;7.30;;;;;;;32.10;40.57;99975.03;4977651;28;20018;-69
2021/07/30 08:56:06;;;;;;;16.77;6.80;;;;;;;32.31;39.40;99973.84;4972464;28;20031;-69
2021/07/30 08:58:33;;;;;;;12.07;6.70;;;;;;;32.63;38.83;99958.44;4972619;28;20057;-68
2021/07/30 09:00:58;;;;;;;15.27;7.43;;;;;;;32.85;37.88;99965.09;4972169;28;20030;-68
2021/07/30 09:03:35;;;;;;;16.83;7.28;;;;;;;32.97;38.48;99955.44;4972052;28;20505;-67
2021/07/30 09:06:19;;;;;;;14.43;7.38;;;;;;;33.02;38.82;99948.84;4972134;28;20026;-65
2021/07/30 09:09:01;;;;;;;20.10;7.00;;;;;;;33.12;38.32;99950.91;4972387;28;20034;-69
2021/07/30 09:11:33;;;;;;;14.20;7.03;;;;;;;33.31;38.67;99948.78;4975255;28;20125;-66
2021/07/30 09:14:02;;;;;;;13.82;7.20;;;;;;;33.43;39.52;99940.88;4975627;28;20110;-66
2021/07/30 09:16:28;;;;;;;18.70;6.68;;;;;;;33.48;36.92;99939.59;4984042;28;20023;-69
2021/07/30 09:18:54;;;;;;;15.00;6.97;;;;;;;33.62;36.02;99930.66;4984634;28;20061;-67
2021/07/30 09:21:29;;;;;;;16.33;6.95;;;;;;;33.75;38.27;99935.13;4985409;28;20490;-66
2021/07/30 09:23:57;;;;;;;14.52;6.88;;;;;;;33.83;41.21;99931.00;4985811;28;20030;-66
2021/07/30 09:26:50;;;;;;;11.63;6.80;;;;;;;33.86;35.50;99928.09;4987512;28;20062;-70
2021/07/30 09:29:19;;;;;;;15.10;6.75;;;;;;;33.89;34.62;99900.25;4989637;28;20465;-69
2021/07/30 09:31:51;;;;;;;14.40;6.30;;;;;;;34.02;34.46;99914.50;4983058;28;20034;-70
2021/07/30 09:34:24;;;;;;;13.10;6.80;;;;;;;34.29;32.82;99910.81;4966575;28;20788;-67
2021/07/30 09:37:04;;;;;;;13.93;7.05;;;;;;;34.45;34.39;99907.09;4974547;28;20061;-66
2021/07/30 09:39:32;;;;;;;18.05;7.07;;;;;;;34.67;32.46;99899.19;4985427;28;20105;-66
2021/07/30 09:42:08;;;;;;;11.93;6.68;;;;;;;34.76;32.28;99897.66;4984616;28;20042;-69
2021/07/30 09:44:44;;;;;;;16.67;6.55;;;;;;;34.92;34.10;99891.16;4987045;28;20434;-68
2021/07/30 09:47:12;;;;;;;18.30;6.90;;;;;;;35.11;31.91;99887.97;4985435;28;20034;-70
2021/07/30 09:49:50;;;;;;;17.13;6.32;;;;;;;35.20;32.00;99887.25;4984517;28;20018;-68
2021/07/30 09:52:23;;;;;;;12.13;6.70;;;;;;;35.25;32.71;99879.72;4985072;28;20114;-66
2021/07/30 09:54:56;;;;;;;15.75;6.90;;;;;;;35.54;32.50;99887.41;4985575;28;20023;-66
2021/07/30 09:57:23;;;;;;;15.10;6.65;;;;;;;35.70;32.54;99881.66;4985542;28;20122;-70
2021/07/30 09:59:50;;;;;;;18.38;7.32;;;;;;;35.79;32.73;99880.97;4989999;28;20042;-67
2021/07/30 10:02:20;;;;;;;11.35;5.80;;;;;;;35.78;29.03;99879.25;4990685;28;20547;-69
2021/07/30 10:04:50;;;;;;;13.07;6.88;;;;;;;35.77;29.67;99885.59;4985052;28;20022;-68
2021/07/30 10:07:21;;;;;;;18.70;6.85;;;;;;;35.71;29.68;99855.69;4983906;28;20031;-69
2021/07/30 10:09:52;;;;;;;13.30;6.65;;;;;;;36.01;29.19;99865.84;4982038;28;20030;-69
2021/07/30 10:12:19;;;;;;;14.38;6.85;;;;;;;36.11;28.76;99853.41;4981969;28;20049;-68
2021/07/30 10:14:45;;;;;;;15.02;6.90;;;;;;;36.20;29.04;99862.56;4983095;28;20014;-69
2021/07/30 10:17:14;;;;;;;15.73;6.45;;;;;;;36.30;28.69;99854.59;4983465;28;20023;-66
2021/07/30 10:19:41;;;;;;;16.83;7.45;;;;;;;36.16;29.16;99831.53;4966813;28;20054;-67
2021/07/30 10:22:08;;;;;;;16.27;6.82;;;;;;;36.55;27.60;99845.41;4982778;28;20042;-69
2021/07/30 10:24:39;;;;;;;16.42;6.63;;;;;;;36.75;29.01;99848.25;4990732;28;20073;-66
2021/07/30 10:27:07;;;;;;;16.67;6.93;;;;;;;36.75;28.08;99843.75;4984496;28;20026;-68
2021/07/30 10:30:06;;;;;;;15.93;7.75;;;;;;;37.08;27.39;99838.38;4949898;28;20045;-67
2021/07/30 10:32:59;;;;;;;16.70;6.38;;;;;;;37.23;27.50;99845.13;4984524;28;20120;-67
2021/07/30 10:35:27;;;;;;;15.50;7.32;;;;;;;37.43;26.59;99842.59;4943936;29;20036;-67
2021/07/30 10:38:14;;;;;;;19.83;7.72;;;;;;;37.56;25.54;99837.00;4941977;29;20130;-67
2021/07/30 10:40:42;;;;;;;15.45;7.13;;;;;;;37.42;26.56;99792.44;4949679;28;20102;-67
2021/07/30 10:43:14;;;;;;;16.75;6.40;;;;;;;37.52;26.44;99828.38;4944728;28;20041;-70
2021/07/30 10:45:41;;;;;;;13.88;7.30;;;;;;;37.46;27.74;99826.19;4953812;28;20074;-66
2021/07/30 10:48:31;;;;;;;15.95;7.03;;;;;;;37.47;25.33;99830.56;4929027;29;20506;-71
2021/07/30 10:51:06;;;;;;;18.45;7.22;;;;;;;37.80;25.16;99823.22;4924424;29;20127;-70
2021/07/30 10:53:38;;;;;;;15.55;7.03;;;;;;;37.96;23.82;99817.38;4925670;29;20103;-74
2021/07/30 10:56:04;;;;;;;16.50;6.45;;;;;;;37.97;22.77;99804.75;4932669;29;20032;-68
2021/07/30 10:58:45;;;;;;;13.07;6.78;;;;;;;38.19;23.23;99806.38;4921348;29;20051;-67
2021/07/30 11:01:11;;;;;;;16.55;7.03;;;;;;;38.43;23.37;99797.06;4921693;29;20028;-66
2021/07/30 11:03:51;;;;;;;17.48;6.85;;;;;;;38.43;23.36;99791.69;4923521;29;20036;-67
2021/07/30 11:06:18;;;;;;;15.98;6.55;;;;;;;38.58;23.11;99797.50;4919285;29;20542;-67
2021/07/30 11:08:58;;;;;;;14.90;6.75;;;;;;;38.39;23.27;99764.13;4915055;29;20042;-69
2021/07/30 11:11:43;;;;;;;18.42;6.72;;;;;;;38.52;22.25;99782.72;4930804;29;20692;-69
2021/07/30 11:14:08;;;;;;;17.33;6.72;;;;;;;38.70;22.63;99785.59;4949130;28;20043;-68
2021/07/30 11:16:34;;;;;;;13.93;7.03;;;;;;;38.66;21.61;99771.53;4951033;29;20034;-69
2021/07/30 11:19:04;;;;;;;17.42;6.25;;;;;;;38.76;21.05;99768.84;4962011;28;20064;-70
2021/07/30 11:21:29;;;;;;;14.77;6.40;;;;;;;38.87;21.94;99767.00;4984100;28;20130;-70
2021/07/30 11:24:00;;;;;;;23.88;7.03;;;;;;;39.10;21.55;99772.94;4983892;28;20840;-69
2021/07/30 11:26:26;;;;;;;14.98;6.53;;;;;;;38.94;21.49;99749.22;4982324;28;20062;-70